Time;durP1;ratioP1;P1;durP2;ratioP2;P2;SDS_P1;SDS_P2;PMS_P1;PMS_P2;Temp;Humidity;BMP_temperature;BMP_pressure;BME280_temperature;BME280_humidity;BME280_pressure;Samples;Min_cycle;Max_cycle;Signal;HPM_P1;HPM_P2
2023/01/06 00:01:18;;;;;;;15.90;4.87;;;11.70;99.90;;;;;;4915486;29;40356;-79
2023/01/06 00:03:53;;;;;;;13.47;4.00;;;11.70;99.90;;;;;;4922813;28;39831;-79
2023/01/06 00:06:26;;;;;;;14.83;4.80;;;11.70;99.90;;;;;;4933384;28;39203;-80
2023/01/06 00:08:57;;;;;;;8.95;3.58;;;11.70;99.90;;;;;;4932537;28;39179;-79
2023/01/06 00:11:24;;;;;;;8.33;3.63;;;11.70;99.90;;;;;;4918384;28;40114;-79
2023/01/06 00:13:50;;;;;;;9.83;3.17;;;11.70;99.90;;;;;;4918881;29;39973;-80
2023/01/06 00:16:19;;;;;;;6.53;3.40;;;11.70;99.90;;;;;;4916180;28;37045;-80
2023/01/06 00:18:45;;;;;;;9.03;3.93;;;11.80;99.90;;;;;;4915192;28;38099;-78
2023/01/06 00:21:13;;;;;;;9.07;3.73;;;11.70;99.90;;;;;;4930848;28;39749;-80
2023/01/06 00:23:40;;;;;;;11.70;4.20;;;11.70;99.90;;;;;;4916718;28;38000;-79
2023/01/06 00:26:08;;;;;;;10.77;4.03;;;11.70;99.90;;;;;;4928340;28;38732;-78
2023/01/06 00:28:34;;;;;;;7.33;3.70;;;11.70;99.90;;;;;;4914351;29;37690;-79
2023/01/06 00:31:06;;;;;;;11.27;3.53;;;11.70;99.90;;;;;;4914440;28;38250;-80
2023/01/06 00:33:32;;;;;;;10.60;4.03;;;11.70;99.90;;;;;;4929064;28;48502;-80
2023/01/06 00:35:59;;;;;;;10.70;3.83;;;11.60;99.90;;;;;;4931740;28;38289;-79
2023/01/06 00:38:25;;;;;;;11.23;4.30;;;11.70;99.90;;;;;;4915585;28;37962;-79
2023/01/06 00:40:51;;;;;;;13.80;3.73;;;11.70;99.90;;;;;;4927548;28;38638;-80
2023/01/06 00:43:17;;;;;;;10.33;3.63;;;11.70;99.90;;;;;;4930311;28;38037;-80
2023/01/06 00:45:43;;;;;;;10.47;3.17;;;11.70;99.90;;;;;;4916210;28;39232;-79
2023/01/06 00:48:09;;;;;;;11.67;3.37;;;11.70;99.90;;;;;;4914692;28;36510;-79
2023/01/06 00:50:35;;;;;;;6.20;2.93;;;11.80;99.90;;;;;;4915911;28;39991;-79
2023/01/06 00:53:02;;;;;;;7.57;3.23;;;11.70;99.90;;;;;;4927470;28;39612;-81
2023/01/06 00:55:28;;;;;;;6.20;3.17;;;11.70;99.90;;;;;;4926730;28;38904;-79
2023/01/06 00:57:55;;;;;;;7.90;2.90;;;11.70;99.90;;;;;;4914106;28;39585;-79
2023/01/06 01:00:21;;;;;;;12.10;3.00;;;11.70;99.90;;;;;;4931052;28;38973;-79
2023/01/06 01:02:48;;;;;;;14.60;3.47;;;11.70;99.90;;;;;;4929473;28;38502;-79
2023/01/06 01:05:14;;;;;;;11.57;3.27;;;11.70;99.90;;;;;;4927729;28;38588;-79
2023/01/06 01:07:40;;;;;;;8.57;3.40;;;11.70;99.90;;;;;;4925187;28;35999;-79
2023/01/06 01:10:08;;;;;;;11.70;4.20;;;11.80;99.90;;;;;;4918162;29;38716;-81
2023/01/06 01:12:35;;;;;;;16.07;4.50;;;11.70;99.90;;;;;;4927578;28;38110;-80
2023/01/06 01:15:01;;;;;;;8.53;3.93;;;11.80;99.90;;;;;;4917981;29;37469;-79
2023/01/06 01:17:30;;;;;;;10.57;4.23;;;11.80;99.90;;;;;;4936472;28;37763;-79
2023/01/06 01:19:58;;;;;;;11.00;4.07;;;11.80;99.90;;;;;;4916318;29;38361;-79
2023/01/06 01:22:26;;;;;;;9.40;3.50;;;11.80;99.90;;;;;;4936276;28;37849;-81
2023/01/06 01:24:53;;;;;;;9.23;3.60;;;11.80;99.90;;;;;;4937882;28;37192;-80
2023/01/06 01:27:19;;;;;;;8.37;3.67;;;11.80;99.90;;;;;;4939978;28;36880;-80
2023/01/06 01:29:45;;;;;;;12.87;3.17;;;11.80;99.90;;;;;;4928937;28;37604;-80
2023/01/06 01:32:11;;;;;;;11.93;3.57;;;11.80;99.90;;;;;;4911293;29;38093;-79
2023/01/06 01:34:37;;;;;;;9.23;2.90;;;11.80;99.90;;;;;;4932155;28;39706;-80
2023/01/06 01:37:03;;;;;;;6.70;2.80;;;11.80;99.90;;;;;;4913336;28;38472;-79
2023/01/06 01:39:29;;;;;;;7.27;2.60;;;11.80;99.90;;;;;;4915146;29;39652;-80
2023/01/06 01:41:57;;;;;;;8.37;3.17;;;11.70;99.90;;;;;;4925579;28;39140;-79
2023/01/06 01:45:04;;;;;;;7.60;2.97;;;11.80;99.90;;;;;;4938749;29;38286;-80
2023/01/06 01:47:39;;;;;;;7.73;2.63;;;11.70;99.90;;;;;;4929462;28;47709;-80
2023/01/06 01:50:26;;;;;;;11.50;3.10;;;11.70;99.90;;;;;;4935057;28;39285;-80
2023/01/06 01:52:57;;;;;;;7.33;2.40;;;11.70;99.90;;;;;;4917589;28;38059;-79
2023/01/06 01:55:26;;;;;;;9.00;2.63;;;11.70;99.90;;;;;;4935283;28;39419;-80
2023/01/06 01:58:09;;;;;;;8.37;2.50;;;11.70;99.90;;;;;;4916373;29;37756;-79
2023/01/06 02:03:26;;;;;;;8.53;2.10;;;11.70;99.90;;;;;;3887455;23;20041;-76
2023/01/06 02:06:00;;;;;;;5.87;2.23;;;11.80;99.90;;;;;;4889738;29;38612;-75
2023/01/06 02:08:35;;;;;;;6.30;1.60;;;11.80;99.90;;;;;;4898608;29;35987;-76
2023/01/06 02:11:02;;;;;;;6.67;1.70;;;11.90;99.90;;;;;;4900176;29;36204;-75
2023/01/06 02:13:28;;;;;;;5.77;1.87;;;11.90;99.90;;;;;;4909789;29;48504;-76
2023/01/06 02:16:20;;;;;;;8.93;1.83;;;11.80;99.90;;;;;;4915194;29;38123;-76
2023/01/06 02:18:49;;;;;;;6.85;1.60;;;11.80;99.90;;;;;;4914281;29;47559;-76
2023/01/06 02:21:18;;;;;;;6.80;1.90;;;11.80;99.90;;;;;;4890281;29;37571;-75
2023/01/06 02:23:50;;;;;;;4.60;1.67;;;11.80;99.90;;;;;;4910549;29;37782;-76
2023/01/06 02:26:22;;;;;;;6.13;1.90;;;11.80;99.90;;;;;;4907060;29;38777;-75
2023/01/06 02:29:12;;;;;;;5.38;2.05;;;11.80;99.90;;;;;;4913094;29;38018;-76
2023/01/06 02:31:52;;;;;;;9.67;2.47;;;11.80;99.90;;;;;;4913780;29;39781;-76
2023/01/06 02:34:29;;;;;;;4.63;1.90;;;11.80;99.90;;;;;;4910193;29;48096;-76
2023/01/06 02:37:06;;;;;;;3.67;1.80;;;11.80;99.90;;;;;;4909379;29;36636;-76
2023/01/06 02:39:48;;;;;;;9.93;2.13;;;11.80;99.90;;;;;;4911442;29;48249;-76
2023/01/06 02:42:22;;;;;;;6.13;1.57;;;11.80;99.90;;;;;;4898751;29;37278;-76
2023/01/06 02:45:07;;;;;;;8.47;1.50;;;11.80;99.90;;;;;;4917311;29;38751;-75
2023/01/06 02:47:55;;;;;;;4.83;1.33;;;11.80;99.90;;;;;;4895423;29;47319;-76
2023/01/06 02:50:33;;;;;;;4.37;1.60;;;11.80;99.90;;;;;;4918368;29;36772;-76
2023/01/06 02:53:18;;;;;;;4.13;1.40;;;11.80;99.90;;;;;;4915202;29;37392;-76
2023/01/06 02:55:47;;;;;;;10.37;1.73;;;11.80;99.90;;;;;;4909612;29;48690;-76
2023/01/06 02:58:29;;;;;;;5.80;2.08;;;11.80;99.90;;;;;;4904941;29;37518;-76
2023/01/06 03:01:04;;;;;;;8.93;2.40;;;11.80;99.90;;;;;;4906781;29;37940;-76
2023/01/06 03:03:35;;;;;;;6.87;2.10;;;11.80;99.90;;;;;;4914736;29;46960;-76
2023/01/06 03:06:08;;;;;;;6.57;2.30;;;11.80;99.90;;;;;;4910716;29;38973;-76
2023/01/06 03:08:35;;;;;;;4.05;1.85;;;11.70;99.90;;;;;;4912471;29;48557;-76
2023/01/06 03:11:02;;;;;;;5.45;1.50;;;11.80;99.90;;;;;;4893685;29;36183;-76
2023/01/06 03:13:49;;;;;;;6.90;1.90;;;11.90;99.90;;;;;;4905318;29;38639;-76
2023/01/06 03:16:16;;;;;;;5.77;1.33;;;11.90;99.90;;;;;;4900741;29;20112;-75
2023/01/06 03:18:46;;;;;;;5.20;1.53;;;11.90;99.90;;;;;;4892075;29;38385;-76
2023/01/06 03:21:25;;;;;;;5.15;1.40;;;11.90;99.90;;;;;;4905723;29;36093;-76
2023/01/06 03:23:52;;;;;;;5.63;1.15;;;11.90;99.90;;;;;;4895200;29;37528;-76
2023/01/06 03:26:18;;;;;;;5.82;1.45;;;11.90;99.90;;;;;;4904780;29;39420;-76
2023/01/06 03:28:44;;;;;;;4.75;1.33;;;11.90;99.90;;;;;;4904952;29;37978;-75
2023/01/06 03:31:10;;;;;;;4.93;1.67;;;11.90;99.90;;;;;;4904870;29;36896;-76
2023/01/06 03:33:55;;;;;;;6.82;1.80;;;11.90;99.90;;;;;;4894115;29;37835;-75
2023/01/06 03:36:32;;;;;;;6.83;1.90;;;11.90;99.90;;;;;;4907848;29;39889;-75
2023/01/06 03:39:13;;;;;;;7.13;1.92;;;11.90;99.90;;;;;;4892395;29;38166;-75
2023/01/06 03:44:45;;;;;;;8.65;1.88;;;11.90;99.90;;;;;;4907830;29;48517;-76
2023/01/06 03:47:30;;;;;;;6.97;1.85;;;11.90;99.90;;;;;;4914472;29;38304;-77
2023/01/06 03:50:08;;;;;;;6.53;1.60;;;12.00;99.90;;;;;;4905846;29;35971;-76
2023/01/06 03:52:42;;;;;;;5.57;2.28;;;12.00;99.90;;;;;;4911652;29;49706;-75
2023/01/06 03:55:15;;;;;;;4.72;1.42;;;12.00;99.90;;;;;;4906525;28;37509;-76
2023/01/06 03:57:45;;;;;;;4.37;1.37;;;12.00;99.90;;;;;;4913488;29;37846;-76
2023/01/06 04:00:17;;;;;;;6.33;1.40;;;12.00;99.90;;;;;;4909278;29;38274;-76
2023/01/06 04:02:44;;;;;;;;;;;12.00;99.90;;;;;;4901246;29;36158;-76
2023/01/06 04:05:16;;;;;;;5.07;1.70;;;12.00;99.90;;;;;;4908680;29;38981;-76
2023/01/06 04:07:43;;;;;;;9.00;1.63;;;12.00;99.90;;;;;;4896836;29;39197;-76
2023/01/06 04:10:11;;;;;;;4.83;1.23;;;12.00;99.90;;;;;;4910160;29;38174;-76
2023/01/06 04:12:37;;;;;;;4.40;1.50;;;12.00;99.90;;;;;;4909743;29;37056;-77
2023/01/06 04:15:25;;;;;;;2.70;1.63;;;12.00;99.90;;;;;;4895401;29;39542;-76
2023/01/06 04:17:51;;;;;;;7.70;1.90;;;12.00;99.90;;;;;;4913768;28;47525;-76
2023/01/06 04:20:27;;;;;;;4.50;1.37;;;11.90;99.90;;;;;;4892424;29;37294;-76
2023/01/06 04:22:54;;;;;;;4.65;1.80;;;11.90;99.90;;;;;;4899619;29;36052;-76
2023/01/06 04:25:21;;;;;;;4.17;1.60;;;12.00;99.90;;;;;;4906007;29;36140;-76
2023/01/06 04:27:47;;;;;;;5.40;1.50;;;11.90;99.90;;;;;;4905038;29;38573;-75
2023/01/06 04:30:13;;;;;;;4.10;1.60;;;12.00;99.90;;;;;;4906554;28;38091;-76
2023/01/06 04:32:39;;;;;;;2.78;1.40;;;12.00;99.90;;;;;;4912594;29;36612;-78
2023/01/06 04:35:06;;;;;;;4.60;1.93;;;11.90;99.90;;;;;;4899125;29;38096;-76
2023/01/06 04:37:33;;;;;;;4.83;1.50;;;11.90;99.90;;;;;;4892735;29;38911;-75
2023/01/06 04:39:59;;;;;;;6.87;1.77;;;11.90;99.90;;;;;;4906527;29;37507;-76
2023/01/06 04:42:25;;;;;;;4.70;1.60;;;11.80;99.90;;;;;;4911512;29;37496;-76
2023/01/06 04:44:51;;;;;;;7.33;1.70;;;11.70;99.90;;;;;;4896145;29;37614;-76
2023/01/06 04:47:17;;;;;;;4.77;1.73;;;11.80;99.90;;;;;;4903159;29;37981;-76
2023/01/06 04:49:43;;;;;;;4.32;1.70;;;11.80;99.90;;;;;;4909716;29;38194;-76
2023/01/06 04:52:09;;;;;;;5.40;1.90;;;11.80;99.90;;;;;;4891413;29;35948;-76
2023/01/06 04:54:36;;;;;;;4.93;1.90;;;11.80;99.90;;;;;;4910209;29;39551;-76
2023/01/06 04:57:02;;;;;;;6.13;1.67;;;11.80;99.90;;;;;;4893044;29;37632;-75
2023/01/06 04:59:28;;;;;;;5.03;1.60;;;11.80;99.90;;;;;;4916084;29;37135;-76
2023/01/06 05:01:54;;;;;;;6.47;1.48;;;11.80;99.90;;;;;;4913108;29;37280;-75
2023/01/06 05:04:20;;;;;;;3.77;1.70;;;11.70;99.90;;;;;;4907847;28;37564;-76
2023/01/06 05:06:46;;;;;;;8.87;1.50;;;11.60;99.90;;;;;;4888699;29;37851;-75
2023/01/06 05:09:12;;;;;;;2.27;1.50;;;11.50;99.90;;;;;;4894922;29;37248;-75
2023/01/06 05:11:39;;;;;;;4.60;2.80;;;11.50;99.90;;;;;;4912979;29;37064;-75
2023/01/06 05:14:05;;;;;;;1.70;1.40;;;11.50;99.90;;;;;;4897937;29;37912;-75
2023/01/06 05:16:33;;;;;;;4.23;1.63;;;11.50;99.90;;;;;;4915618;29;37832;-75
2023/01/06 05:18:59;;;;;;;4.27;2.07;;;11.50;99.90;;;;;;4917715;29;39310;-75
2023/01/06 05:21:27;;;;;;;3.30;1.53;;;11.50;99.90;;;;;;4915494;29;37402;-75
2023/01/06 05:23:53;;;;;;;5.17;1.20;;;11.50;99.90;;;;;;4899087;29;38806;-75
2023/01/06 05:26:22;;;;;;;2.13;1.10;;;11.50;99.90;;;;;;4899593;29;39832;-75
2023/01/06 05:28:48;;;;;;;2.67;1.40;;;11.60;99.90;;;;;;4916003;28;39227;-75
2023/01/06 05:31:14;;;;;;;3.20;1.42;;;11.60;99.90;;;;;;4913347;29;38163;-74
2023/01/06 05:33:41;;;;;;;8.83;2.10;;;11.60;99.90;;;;;;4897368;29;38887;-75
2023/01/06 05:36:13;;;;;;;4.70;1.35;;;11.60;99.90;;;;;;4899295;29;37366;-75
2023/01/06 05:38:39;;;;;;;4.05;1.20;;;11.60;99.90;;;;;;4913538;29;38403;-75
2023/01/06 05:41:06;;;;;;;4.88;1.48;;;11.60;99.90;;;;;;4884397;29;35670;-74
2023/01/06 05:43:34;;;;;;;4.50;1.30;;;11.70;99.90;;;;;;4898770;29;37051;-75
2023/01/06 05:46:04;;;;;;;5.17;1.10;;;11.70;99.90;;;;;;4899334;29;37868;-75
2023/01/06 05:48:30;;;;;;;5.85;1.65;;;11.70;99.90;;;;;;4896391;29;48188;-75
2023/01/06 05:51:04;;;;;;;7.80;1.50;;;11.70;99.90;;;;;;4897532;29;37100;-75
2023/01/06 05:53:31;;;;;;;3.72;1.38;;;11.60;99.90;;;;;;4905507;29;46309;-75
2023/01/06 05:55:59;;;;;;;5.22;1.48;;;11.60;99.90;;;;;;4896742;29;37700;-75
2023/01/06 05:58:25;;;;;;;7.47;1.25;;;11.60;99.90;;;;;;4909475;29;39433;-75
2023/01/06 06:00:51;;;;;;;6.00;1.50;;;11.60;99.90;;;;;;4885205;29;35903;-75
2023/01/06 06:03:17;;;;;;;2.42;1.35;;;11.60;99.90;;;;;;4899509;29;38775;-75
2023/01/06 06:05:43;;;;;;;3.00;1.52;;;11.60;99.90;;;;;;4887123;29;37929;-74
2023/01/06 06:08:09;;;;;;;4.63;2.00;;;11.60;99.90;;;;;;4889285;29;37326;-74
2023/01/06 06:10:35;;;;;;;1.63;1.23;;;11.60;99.90;;;;;;4903694;29;37962;-75
2023/01/06 06:13:01;;;;;;;3.92;1.90;;;11.60;99.90;;;;;;4899613;29;37820;-75
2023/01/06 06:15:27;;;;;;;8.27;2.05;;;11.50;99.90;;;;;;4908051;29;38788;-75
2023/01/06 06:17:54;;;;;;;5.95;1.73;;;11.50;99.90;;;;;;4909074;29;37323;-75
2023/01/06 06:20:20;;;;;;;3.00;2.20;;;11.50;99.90;;;;;;4908069;29;36712;-75
2023/01/06 06:22:46;;;;;;;5.45;2.70;;;11.50;99.90;;;;;;4913263;29;37650;-75
2023/01/06 06:25:12;;;;;;;7.77;2.70;;;11.50;99.90;;;;;;4902102;29;36950;-74
2023/01/06 06:27:38;;;;;;;4.15;2.95;;;11.40;99.90;;;;;;4902173;29;38979;-75
2023/01/06 06:30:06;;;;;;;8.43;3.13;;;11.50;99.90;;;;;;4875872;29;37508;-75
2023/01/06 06:32:32;;;;;;;6.23;3.60;;;11.50;99.90;;;;;;4907436;29;40327;-75
2023/01/06 06:34:58;;;;;;;6.00;3.17;;;11.50;99.90;;;;;;4908625;29;39775;-75
2023/01/06 06:37:24;;;;;;;4.30;3.73;;;11.40;99.90;;;;;;4920673;29;40673;-75
2023/01/06 06:39:50;;;;;;;8.63;4.35;;;11.50;99.90;;;;;;4910134;29;37199;-74
2023/01/06 06:42:16;;;;;;;5.00;4.40;;;11.40;99.90;;;;;;4916373;29;37386;-75
2023/01/06 06:44:42;;;;;;;7.55;5.32;;;11.40;99.90;;;;;;4910571;29;38440;-75
2023/01/06 06:47:08;;;;;;;6.22;4.43;;;11.40;99.90;;;;;;4917097;29;39296;-75
2023/01/06 06:49:34;;;;;;;4.60;4.15;;;11.40;99.90;;;;;;4918728;29;35971;-75
2023/01/06 06:52:00;;;;;;;5.87;4.67;;;11.40;99.90;;;;;;4914672;29;38686;-76
2023/01/06 06:54:26;;;;;;;6.93;4.60;;;11.40;99.90;;;;;;4919261;29;39359;-76
2023/01/06 06:56:52;;;;;;;6.55;4.55;;;11.40;99.90;;;;;;4914200;29;39122;-75
2023/01/06 06:59:18;;;;;;;7.95;4.22;;;11.30;99.90;;;;;;4899563;29;36186;-76
2023/01/06 07:01:44;;;;;;;8.20;4.30;;;11.30;99.90;;;;;;4913156;29;37409;-76
2023/01/06 07:04:10;;;;;;;9.67;4.63;;;11.20;99.90;;;;;;4910786;29;38851;-76
2023/01/06 07:06:37;;;;;;;9.60;4.60;;;11.20;99.90;;;;;;4892358;29;39494;-76
2023/01/06 07:09:03;;;;;;;10.73;5.30;;;11.20;99.90;;;;;;4912730;29;35934;-76
2023/01/06 07:11:29;;;;;;;12.37;4.60;;;11.20;99.90;;;;;;4921141;29;41357;-76
2023/01/06 07:13:55;;;;;;;9.33;4.67;;;11.10;99.90;;;;;;4919457;29;37096;-76
2023/01/06 07:16:25;;;;;;;9.43;5.10;;;11.10;99.90;;;;;;4904157;29;37789;-77
2023/01/06 07:18:52;;;;;;;13.40;4.07;;;11.10;99.90;;;;;;4913982;29;36486;-76
2023/01/06 07:21:18;;;;;;;10.97;4.03;;;11.10;99.90;;;;;;4915643;29;38864;-76
2023/01/06 07:23:44;;;;;;;8.47;4.03;;;11.10;99.90;;;;;;4913387;29;39205;-76
2023/01/06 07:26:10;;;;;;;12.13;3.47;;;11.10;99.90;;;;;;4912598;29;39395;-75
2023/01/06 07:28:36;;;;;;;8.70;3.23;;;11.10;99.90;;;;;;4914172;29;37404;-76
2023/01/06 07:31:03;;;;;;;8.23;3.93;;;11.10;99.90;;;;;;4894792;29;37491;-76
2023/01/06 07:33:29;;;;;;;13.03;3.47;;;11.20;99.90;;;;;;4888257;29;36601;-75
2023/01/06 07:35:56;;;;;;;10.80;3.83;;;11.20;99.90;;;;;;4900715;29;37185;-75
2023/01/06 07:38:23;;;;;;;11.40;2.90;;;11.20;99.90;;;;;;4895409;29;36064;-76
2023/01/06 07:40:49;;;;;;;6.03;2.70;;;11.20;99.90;;;;;;4894900;29;39058;-76
2023/01/06 07:43:16;;;;;;;11.67;3.20;;;11.20;99.90;;;;;;4914101;29;38999;-75
2023/01/06 07:45:42;;;;;;;6.67;2.33;;;11.20;99.90;;;;;;4900757;29;37265;-75
2023/01/06 07:48:08;;;;;;;11.80;2.40;;;11.10;99.90;;;;;;4911667;29;36095;-75
2023/01/06 07:50:34;;;;;;;13.33;2.60;;;11.10;99.90;;;;;;4910619;29;37845;-75
2023/01/06 07:53:01;;;;;;;11.97;2.73;;;11.10;99.90;;;;;;4901894;29;38215;-76
2023/01/06 07:55:29;;;;;;;12.60;2.53;;;11.10;99.90;;;;;;4896154;29;47051;-75
2023/01/06 07:57:55;;;;;;;13.73;2.50;;;11.00;99.90;;;;;;4914934;29;37412;-75
2023/01/06 08:00:21;;;;;;;25.40;3.40;;;10.90;99.90;;;;;;4899767;29;38821;-75
2023/01/06 08:02:48;;;;;;;19.47;3.20;;;10.90;99.90;;;;;;4907799;29;37697;-75
2023/01/06 08:05:14;;;;;;;22.27;3.50;;;10.80;99.90;;;;;;4913047;29;37330;-75
2023/01/06 08:07:40;;;;;;;20.67;2.70;;;10.70;99.90;;;;;;4899080;29;36051;-75
2023/01/06 08:10:06;;;;;;;17.33;2.83;;;10.60;99.90;;;;;;4896652;29;39138;-75
2023/01/06 08:12:32;;;;;;;16.50;3.10;;;10.60;99.90;;;;;;4908239;29;37918;-75
2023/01/06 08:14:58;;;;;;;14.37;1.90;;;10.50;99.90;;;;;;4913341;29;39242;-75
2023/01/06 08:17:24;;;;;;;13.77;2.23;;;10.50;99.90;;;;;;4903073;29;36249;-75
2023/01/06 08:19:50;;;;;;;15.50;2.53;;;10.40;99.90;;;;;;4905993;29;38104;-75
2023/01/06 08:22:16;;;;;;;17.67;2.93;;;10.40;99.90;;;;;;4901526;29;37432;-76
2023/01/06 08:24:42;;;;;;;18.00;2.47;;;10.30;99.90;;;;;;4906114;29;38739;-75
2023/01/06 08:27:08;;;;;;;16.53;1.90;;;10.30;99.90;;;;;;4906511;29;36171;-75
2023/01/06 08:29:34;;;;;;;19.67;2.60;;;10.20;99.90;;;;;;4891772;29;38082;-75
2023/01/06 08:32:01;;;;;;;10.60;1.37;;;10.20;99.90;;;;;;4910511;29;40228;-74
2023/01/06 08:34:27;;;;;;;16.67;1.83;;;10.20;99.90;;;;;;4911832;29;46518;-74
2023/01/06 08:36:53;;;;;;;6.67;1.17;;;10.20;99.90;;;;;;4893967;29;36999;-74
2023/01/06 08:39:19;;;;;;;14.23;2.13;;;10.20;99.90;;;;;;4894137;29;38647;-74
2023/01/06 08:41:46;;;;;;;16.63;2.07;;;10.10;99.90;;;;;;4888391;29;37721;-74
2023/01/06 08:44:12;;;;;;;11.30;2.37;;;10.10;99.90;;;;;;4888768;29;40019;-76
2023/01/06 08:46:38;;;;;;;9.93;1.60;;;10.10;99.90;;;;;;4892556;29;37519;-74
2023/01/06 08:49:04;;;;;;;17.07;3.43;;;10.10;99.90;;;;;;4904006;29;37822;-74
2023/01/06 08:51:31;;;;;;;19.80;2.13;;;10.00;99.90;;;;;;4889018;29;39036;-75
2023/01/06 08:53:57;;;;;;;10.10;1.90;;;10.10;99.90;;;;;;4887832;29;37256;-75
2023/01/06 08:56:25;;;;;;;17.93;2.00;;;10.10;99.90;;;;;;4908302;29;36372;-74
2023/01/06 08:58:58;;;;;;;13.40;2.03;;;10.00;99.90;;;;;;4908925;29;39844;-75
2023/01/06 09:01:30;;;;;;;11.40;1.50;;;10.10;99.90;;;;;;4905453;29;39177;-75
2023/01/06 09:03:59;;;;;;;11.90;1.52;;;10.10;99.90;;;;;;4890518;29;37782;-75
2023/01/06 09:06:25;;;;;;;13.97;2.23;;;10.10;99.90;;;;;;4897705;29;36535;-75
2023/01/06 09:08:52;;;;;;;15.97;1.77;;;10.10;99.90;;;;;;4894751;29;39224;-77
2023/01/06 09:11:19;;;;;;;11.27;1.93;;;10.10;99.90;;;;;;4881453;29;38092;-77
2023/01/06 09:13:45;;;;;;;16.10;2.33;;;10.10;99.90;;;;;;4885177;29;36906;-77
2023/01/06 09:16:12;;;;;;;12.17;1.87;;;10.10;99.90;;;;;;4912710;29;38300;-75
2023/01/06 09:18:39;;;;;;;13.47;1.90;;;10.10;99.90;;;;;;4900523;29;37900;-75
2023/01/06 09:21:05;;;;;;;18.83;2.03;;;10.10;99.90;;;;;;4912658;29;39516;-76
2023/01/06 09:23:31;;;;;;;13.23;1.70;;;10.10;99.90;;;;;;4907856;29;37485;-77
2023/01/06 09:25:58;;;;;;;11.93;1.97;;;10.10;99.90;;;;;;4897120;29;35906;-76
2023/01/06 09:28:25;;;;;;;13.07;1.83;;;10.10;99.90;;;;;;4891743;29;39031;-77
2023/01/06 09:30:51;;;;;;;9.97;1.57;;;10.10;99.90;;;;;;4905659;29;38462;-77
2023/01/06 09:33:17;;;;;;;15.87;1.70;;;10.10;99.90;;;;;;4908140;29;38208;-75
2023/01/06 09:35:44;;;;;;;16.60;1.90;;;10.20;99.90;;;;;;4902146;29;38908;-74
2023/01/06 09:38:11;;;;;;;12.43;1.93;;;10.20;99.90;;;;;;4901205;29;39242;-74
2023/01/06 09:41:23;;;;;;;11.43;1.80;;;10.20;99.90;;;;;;4907224;29;38969;-74
2023/01/06 09:44:27;;;;;;;14.95;2.53;;;10.20;99.90;;;;;;4890829;29;48031;-74
2023/01/06 09:46:54;;;;;;;7.93;1.17;;;10.30;99.90;;;;;;4904416;29;47360;-76
2023/01/06 09:49:41;;;;;;;10.27;1.60;;;10.30;99.90;;;;;;4907611;29;39539;-75
2023/01/06 09:52:21;;;;;;;18.33;2.10;;;10.20;99.90;;;;;;4886684;29;39344;-75
2023/01/06 09:55:02;;;;;;;12.03;1.50;;;10.30;99.90;;;;;;4906943;29;37525;-75
2023/01/06 09:57:44;;;;;;;12.90;1.37;;;10.30;99.90;;;;;;4914754;29;38027;-76
2023/01/06 10:00:38;;;;;;;7.10;1.50;;;10.30;99.90;;;;;;4898599;29;38836;-76
2023/01/06 10:03:12;;;;;;;18.70;2.13;;;10.30;99.90;;;;;;4909099;29;48744;-76
2023/01/06 10:05:53;;;;;;;13.27;1.60;;;10.40;99.90;;;;;;4898906;29;38943;-75
2023/01/06 10:08:39;;;;;;;19.03;3.40;;;10.50;99.90;;;;;;4909690;29;36796;-76
2023/01/06 10:11:27;;;;;;;11.40;1.63;;;10.50;99.90;;;;;;4908049;29;39296;-76
2023/01/06 10:14:12;;;;;;;13.30;1.77;;;10.60;99.90;;;;;;4903383;28;38967;-76
2023/01/06 10:17:00;;;;;;;9.47;1.60;;;10.70;99.90;;;;;;4910259;29;47402;-75
2023/01/06 10:19:44;;;;;;;10.40;1.77;;;10.70;99.90;;;;;;4908220;29;36189;-75
2023/01/06 10:22:25;;;;;;;15.37;1.90;;;10.80;99.90;;;;;;4904996;29;37663;-74
2023/01/06 10:24:54;;;;;;;11.30;1.47;;;10.90;99.90;;;;;;4904585;29;39858;-75
2023/01/06 10:27:33;;;;;;;19.10;2.33;;;11.00;99.90;;;;;;4907623;29;38215;-74
2023/01/06 10:30:01;;;;;;;14.07;1.60;;;11.10;99.90;;;;;;4909801;29;37352;-75
2023/01/06 10:32:32;;;;;;;8.93;1.57;;;11.20;99.90;;;;;;4907113;29;38523;-79
2023/01/06 10:34:59;;;;;;;14.07;1.97;;;11.30;99.90;;;;;;4903890;29;39015;-76
2023/01/06 10:37:33;;;;;;;11.20;1.70;;;11.30;99.90;;;;;;4908260;29;35903;-76
2023/01/06 10:40:16;;;;;;;13.97;1.43;;;11.40;99.90;;;;;;4887133;29;36203;-75
2023/01/06 10:42:54;;;;;;;13.30;1.60;;;11.40;99.90;;;;;;4883907;29;46283;-74
2023/01/06 10:45:34;;;;;;;9.80;1.67;;;11.40;99.90;;;;;;4903366;29;38743;-76
2023/01/06 10:48:02;;;;;;;11.10;1.30;;;11.40;99.90;;;;;;4907632;29;39973;-75
2023/01/06 10:50:28;;;;;;;11.30;1.30;;;11.50;99.90;;;;;;4909078;29;48547;-75
2023/01/06 10:52:54;;;;;;;10.90;1.50;;;11.50;99.90;;;;;;4885101;29;38376;-75
2023/01/06 10:55:56;;;;;;;7.37;1.73;;;11.40;99.90;;;;;;4901811;29;38069;-75
2023/01/06 10:59:05;;;;;;;8.80;1.23;;;11.50;99.90;;;;;;4884121;29;39506;-76
2023/01/06 11:01:31;;;;;;;6.57;1.40;;;11.50;99.90;;;;;;4891160;29;46403;-76
2023/01/06 11:04:10;;;;;;;9.30;1.20;;;11.50;99.90;;;;;;4909035;29;39029;-75
2023/01/06 11:06:51;;;;;;;7.80;1.10;;;11.50;99.90;;;;;;4907402;29;47137;-76
2023/01/06 11:09:44;;;;;;;5.30;0.90;;;11.60;99.90;;;;;;4902385;29;37939;-75
2023/01/06 11:12:25;;;;;;;9.30;2.17;;;11.60;99.90;;;;;;4905887;29;36344;-75
2023/01/06 11:15:01;;;;;;;9.27;1.10;;;11.60;99.90;;;;;;4907839;29;37251;-75
2023/01/06 11:17:28;;;;;;;12.50;1.33;;;11.60;99.90;;;;;;4911783;29;37904;-76
2023/01/06 11:20:07;;;;;;;13.10;1.60;;;11.70;99.90;;;;;;4913689;29;38439;-74
2023/01/06 11:22:35;;;;;;;9.13;1.90;;;11.70;99.90;;;;;;4892116;29;48041;-77
2023/01/06 11:25:03;;;;;;;13.30;1.67;;;11.80;99.90;;;;;;4905548;29;38602;-77
2023/01/06 11:27:29;;;;;;;8.35;1.38;;;11.80;99.90;;;;;;4907807;29;38804;-76
2023/01/06 11:29:55;;;;;;;6.80;1.30;;;11.80;99.90;;;;;;4908025;29;36324;-77
2023/01/06 11:32:27;;;;;;;8.13;1.10;;;11.70;99.90;;;;;;4915339;29;36659;-76
2023/01/06 11:34:55;;;;;;;9.35;1.08;;;11.90;99.90;;;;;;4914718;29;39120;-75
2023/01/06 11:37:31;;;;;;;9.13;1.45;;;12.00;99.90;;;;;;4910824;29;37679;-76
2023/01/06 11:39:58;;;;;;;7.87;1.63;;;12.00;99.90;;;;;;4898100;29;37256;-77
2023/01/06 11:42:24;;;;;;;8.25;1.30;;;12.00;99.90;;;;;;4899825;29;36885;-77
2023/01/06 11:44:51;;;;;;;8.10;2.93;;;12.00;99.90;;;;;;4912038;29;37610;-77
2023/01/06 11:47:21;;;;;;;7.65;1.40;;;12.10;99.90;;;;;;4888279;29;37711;-76
2023/01/06 11:49:57;;;;;;;8.90;1.50;;;12.20;99.90;;;;;;4904932;29;38698;-76
2023/01/06 11:52:30;;;;;;;5.80;1.52;;;12.20;99.90;;;;;;4904801;29;36558;-77
2023/01/06 11:55:19;;;;;;;7.95;1.88;;;12.30;99.90;;;;;;4917866;29;38971;-76
2023/01/06 11:57:58;;;;;;;6.57;1.25;;;12.30;99.90;;;;;;4903638;29;48563;-77
2023/01/06 12:00:37;;;;;;;9.52;1.40;;;12.40;99.90;;;;;;4889745;29;38722;-76
2023/01/06 12:03:31;;;;;;;7.10;1.42;;;12.30;99.90;;;;;;4866361;29;1284889;-76
2023/01/06 12:06:13;;;;;;;10.55;1.13;;;12.30;99.90;;;;;;4892072;29;41329;-77
2023/01/06 12:08:42;;;;;;;5.22;1.00;;;12.30;99.90;;;;;;4904146;29;48391;-77
2023/01/06 12:11:26;;;;;;;7.53;1.15;;;12.30;99.90;;;;;;4914030;29;37221;-77
2023/01/06 12:13:53;;;;;;;11.50;1.30;;;12.30;99.90;;;;;;4903381;28;37611;-76
2023/01/06 12:16:42;;;;;;;4.97;1.27;;;12.30;99.90;;;;;;4910686;29;38655;-76
2023/01/06 12:19:19;;;;;;;6.82;1.30;;;12.40;99.90;;;;;;4906348;29;35175;-76
2023/01/06 12:21:45;;;;;;;6.55;1.10;;;12.40;99.90;;;;;;4908302;29;38170;-76
2023/01/06 12:24:14;;;;;;;5.97;1.58;;;12.40;99.90;;;;;;4911016;28;36894;-76
2023/01/06 12:26:42;;;;;;;5.88;1.02;;;12.40;99.90;;;;;;4905714;29;40433;-75
2023/01/06 12:29:11;;;;;;;5.95;1.10;;;12.40;99.90;;;;;;4894360;29;37680;-76
2023/01/06 12:31:46;;;;;;;7.53;1.17;;;12.40;99.90;;;;;;4889830;29;38341;-76
2023/01/06 12:34:26;;;;;;;3.97;1.02;;;12.30;99.90;;;;;;4906056;29;36449;-77
2023/01/06 12:37:16;;;;;;;5.13;1.40;;;12.30;99.90;;;;;;4908737;29;38726;-76
2023/01/06 12:39:56;;;;;;;5.83;0.93;;;12.30;99.90;;;;;;4906250;29;49100;-76
2023/01/06 12:42:52;;;;;;;5.10;1.40;;;12.20;99.90;;;;;;4905375;29;36989;-77
2023/01/06 12:45:32;;;;;;;4.33;1.20;;;12.20;99.90;;;;;;4899066;29;36815;-76
2023/01/06 12:48:04;;;;;;;6.75;1.42;;;12.20;99.90;;;;;;4906866;29;38414;-77
2023/01/06 12:50:45;;;;;;;5.88;0.82;;;12.20;99.90;;;;;;4908738;29;47436;-77
2023/01/06 12:53:24;;;;;;;16.10;1.70;;;12.10;99.90;;;;;;4890971;29;37624;-77
2023/01/06 12:56:02;;;;;;;6.45;1.17;;;12.10;99.90;;;;;;4904916;29;36045;-77
2023/01/06 12:58:39;;;;;;;5.25;1.00;;;12.10;99.90;;;;;;4905163;29;46932;-77
2023/01/06 13:01:12;;;;;;;4.25;0.88;;;12.10;99.90;;;;;;4892415;29;39041;-76
2023/01/06 13:03:56;;;;;;;7.35;1.30;;;12.10;99.90;;;;;;4909702;29;37914;-77
2023/01/06 13:06:30;;;;;;;7.28;1.20;;;12.10;99.90;;;;;;4905188;29;37087;-76
2023/01/06 13:09:00;;;;;;;7.13;0.90;;;12.30;99.90;;;;;;4906685;29;37652;-77